Time;durP1;ratioP1;P1;durP2;ratioP2;P2;SDS_P1;SDS_P2;PMS_P1;PMS_P2;Temp;Humidity;BMP_temperature;BMP_pressure;BME280_temperature;BME280_humidity;BME280_pressure;Samples;Min_cycle;Max_cycle;Signal;HPM_P1;HPM_P2
2020/12/19 00:00:15;;;;;;;18.90;10.20;;;;;;;3.36;70.70;101778.75;677058;29;85186;-91
2020/12/19 00:00:54;;;;;;;16.70;10.05;;;;;;;3.48;70.73;101793.06;679925;29;6633;-91
2020/12/19 00:01:28;;;;;;;16.40;10.00;;;;;;;3.23;70.47;101760.03;677420;29;62561;-91
2020/12/19 00:01:49;;;;;;;18.63;9.80;;;;;;;3.48;70.48;101796.59;676980;29;108502;-90
2020/12/19 00:02:11;;;;;;;18.03;10.07;;;;;;;3.46;70.26;101798.50;681265;29;1288;-88
2020/12/19 00:02:33;;;;;;;15.85;9.90;;;;;;;3.45;69.96;101801.28;687244;28;1524;-91
2020/12/19 00:02:55;;;;;;;16.02;9.52;;;;;;;3.43;70.36;101801.38;684178;28;27837;-91
2020/12/19 00:03:20;;;;;;;14.90;9.10;;;;;;;3.15;70.08;101749.00;684919;28;91821;-91
2020/12/19 00:03:49;;;;;;;16.70;9.63;;;;;;;3.37;70.29;101783.09;681479;29;39151;-89
2020/12/19 00:04:11;;;;;;;18.02;10.38;;;;;;;3.21;70.19;101760.13;676373;29;115552;-89
2020/12/19 00:06:09;;;;;;;17.52;9.93;;;;;;;3.32;70.48;101782.56;679802;28;120864;-90
2020/12/19 00:06:31;;;;;;;17.88;9.95;;;;;;;3.09;70.25;101747.63;685742;28;1318;-89
2020/12/19 00:06:52;;;;;;;18.73;9.80;;;;;;;3.17;70.36;101763.13;688601;28;21795;-89
2020/12/19 00:07:19;;;;;;;17.23;9.57;;;;;;;3.13;70.37;101759.78;685053;28;1451;-90
2020/12/19 00:07:41;;;;;;;15.43;9.77;;;;;;;3.13;70.29;101761.59;676176;29;97509;-89
2020/12/19 00:08:02;;;;;;;15.70;9.50;;;;;;;3.11;70.19;101758.19;682510;29;1337;-90
2020/12/19 00:08:24;;;;;;;17.58;10.05;;;;;;;3.13;70.61;101761.59;685266;28;1332;-87
2020/12/19 00:08:46;;;;;;;20.75;10.75;;;;;;;3.32;70.39;101788.75;686990;28;1509;-89
2020/12/19 00:09:08;;;;;;;20.65;10.45;;;;;;;3.17;70.62;101768.47;683137;28;1193;-88
2020/12/19 00:09:30;;;;;;;17.80;10.63;;;;;;;3.07;70.70;101746.84;679830;29;1226;-89
2020/12/19 00:09:51;;;;;;;19.42;10.20;;;;;;;3.17;70.64;101773.78;679974;29;45789;-89
2020/12/19 00:10:18;;;;;;;20.38;10.70;;;;;;;3.09;70.66;101760.97;687994;28;1987;-89
2020/12/19 00:10:39;;;;;;;16.83;10.05;;;;;;;3.14;70.76;101760.66;684154;28;94287;-89
2020/12/19 00:11:06;;;;;;;18.80;9.90;;;;;;;3.28;70.67;101795.28;685233;28;1082;-88
2020/12/19 00:11:30;;;;;;;16.70;10.43;;;;;;;3.17;70.88;101771.13;680411;28;139728;-88
2020/12/19 00:11:52;;;;;;;18.70;10.57;;;;;;;3.07;70.68;101754.84;687109;28;28818;-90
2020/12/19 00:12:15;;;;;;;17.63;10.45;;;;;;;3.28;70.79;101786.44;686888;28;1337;-89
2020/12/19 00:12:37;;;;;;;17.95;10.32;;;;;;;3.09;70.72;101754.75;681834;28;69579;-90
2020/12/19 00:12:59;;;;;;;17.77;10.45;;;;;;;3.22;70.74;101779.66;679805;29;39546;-89
2020/12/19 00:13:21;;;;;;;20.30;9.93;;;;;;;2.95;70.75;101731.69;681119;29;42844;-90
2020/12/19 00:13:43;;;;;;;17.02;9.43;;;;;;;3.15;70.82;101768.56;680926;29;8998;-89
2020/12/19 00:14:05;;;;;;;17.35;9.63;;;;;;;3.05;71.01;101751.44;677289;29;11787;-89
2020/12/19 00:14:29;;;;;;;17.40;9.98;;;;;;;3.00;71.01;101742.91;679732;29;13085;-89
2020/12/19 00:14:54;;;;;;;17.27;10.32;;;;;;;3.24;70.87;101778.63;682494;28;78897;-89
2020/12/19 00:15:20;;;;;;;17.85;10.20;;;;;;;2.92;71.02;101722.06;683802;28;14096;-89
2020/12/19 00:15:44;;;;;;;20.80;10.43;;;;;;;3.17;70.91;101763.13;678773;29;38880;-89
2020/12/19 00:16:07;;;;;;;19.73;10.07;;;;;;;3.23;71.05;101779.56;681004;29;4101;-88
2020/12/19 00:16:29;;;;;;;17.05;10.02;;;;;;;2.96;70.95;101742.25;680680;28;2252;-89
2020/12/19 00:16:53;;;;;;;16.23;9.70;;;;;;;3.23;70.97;101784.06;683981;28;1218;-89
2020/12/19 00:17:15;;;;;;;17.20;10.18;;;;;;;3.05;70.86;101748.78;684315;28;1528;-89
2020/12/19 00:17:45;;;;;;;18.25;10.43;;;;;;;3.11;71.16;101750.19;681248;29;1402;-89
2020/12/19 00:18:07;;;;;;;17.60;9.93;;;;;;;3.19;70.90;101770.03;676540;29;159276;-89
2020/12/19 00:18:29;;;;;;;18.15;9.90;;;;;;;3.23;71.27;101776.06;681192;29;34498;-90
2020/12/19 00:18:50;;;;;;;17.73;9.93;;;;;;;3.26;71.09;101778.53;684178;28;31841;-88
2020/12/19 00:19:12;;;;;;;16.98;10.00;;;;;;;2.97;70.83;101725.25;681861;29;11317;-89
2020/12/19 00:19:34;;;;;;;18.30;10.10;;;;;;;3.07;70.96;101744.19;684635;28;12587;-89
2020/12/19 00:19:56;;;;;;;19.27;10.00;;;;;;;3.04;70.95;101747.06;685571;28;1494;-89
2020/12/19 00:20:17;;;;;;;17.55;10.10;;;;;;;3.12;71.38;101754.53;682663;28;13939;-88
2020/12/19 00:20:39;;;;;;;17.75;9.93;;;;;;;3.17;71.24;101771.13;684661;28;24219;-89
2020/12/19 00:21:00;;;;;;;17.15;10.10;;;;;;;3.14;71.20;101766.84;682572;29;3065;-88
2020/12/19 00:21:25;;;;;;;15.82;9.77;;;;;;;3.23;71.25;101776.91;682693;29;1117;-89
2020/12/19 00:21:47;;;;;;;16.65;9.82;;;;;;;3.01;70.82;101737.47;680850;29;55544;-87
2020/12/19 00:23:51;;;;;;;18.05;10.02;;;;;;;3.04;71.22;101750.59;683958;28;119812;-90
2020/12/19 00:24:12;;;;;;;19.48;10.18;;;;;;;3.02;70.98;101741.81;689768;28;27756;-90
2020/12/19 00:24:34;;;;;;;19.45;10.75;;;;;;;3.20;71.11;101777.09;684256;28;1553;-87
2020/12/19 00:24:56;;;;;;;18.98;10.23;;;;;;;3.24;71.14;101775.06;683843;28;930;-90
2020/12/19 00:25:20;;;;;;;19.27;9.98;;;;;;;3.05;71.11;101743.44;683424;28;13882;-87
2020/12/19 00:25:41;;;;;;;16.88;10.05;;;;;;;3.25;71.03;101777.63;683258;28;20036;-89
2020/12/19 00:26:03;;;;;;;17.50;10.10;;;;;;;3.25;70.97;101779.47;679000;29;8557;-91
2020/12/19 00:26:32;;;;;;;17.38;9.73;;;;;;;3.14;70.62;101761.50;678993;29;16631;-89
2020/12/19 00:26:55;;;;;;;17.83;9.45;;;;;;;3.22;71.00;101772.50;677793;29;130367;-90
2020/12/19 00:27:19;;;;;;;16.17;9.50;;;;;;;2.91;70.83;101717.66;678917;29;33043;-90
2020/12/19 00:27:41;;;;;;;16.60;9.70;;;;;;;2.84;71.06;101722.56;683722;28;38567;-87
2020/12/19 00:28:03;;;;;;;17.35;10.48;;;;;;;3.16;71.17;101772.06;684486;28;22337;-90
2020/12/19 00:28:26;;;;;;;18.25;10.70;;;;;;;2.94;71.04;101733.47;682522;28;1342;-91
2020/12/19 00:28:54;;;;;;;20.27;10.55;;;;;;;2.90;71.23;101734.66;680650;28;137921;-89
2020/12/19 00:29:16;;;;;;;18.70;10.55;;;;;;;3.15;71.34;101768.56;674201;29;139763;-91
2020/12/19 00:29:38;;;;;;;18.92;10.23;;;;;;;3.15;71.28;101778.38;679338;29;21358;-91
2020/12/19 00:30:00;;;;;;;18.35;10.00;;;;;;;3.05;71.04;101756.78;680158;29;46357;-90
2020/12/19 00:30:21;;;;;;;18.90;10.23;;;;;;;3.15;71.06;101773.91;679449;29;1542;-91
2020/12/19 00:30:43;;;;;;;18.13;9.95;;;;;;;3.15;71.37;101770.34;682417;29;1376;-89
2020/12/19 00:31:05;;;;;;;18.42;10.13;;;;;;;3.14;71.35;101777.53;679521;29;22228;-89
2020/12/19 00:32:16;;;;;;;18.42;10.48;;;;;;;3.17;71.46;101774.66;682572;28;46487;-90
2020/12/19 00:32:39;;;;;;;18.25;9.82;;;;;;;3.02;71.19;101730.28;681933;28;135738;-91
2020/12/19 00:33:00;;;;;;;18.50;10.15;;;;;;;3.19;71.07;101774.53;687382;28;1197;-90
2020/12/19 00:33:22;;;;;;;18.98;10.95;;;;;;;2.95;71.35;101737.03;687892;28;12322;-89
2020/12/19 00:33:49;;;;;;;17.05;10.38;;;;;;;3.16;71.19;101770.25;682316;28;19850;-89
2020/12/19 00:34:11;;;;;;;17.33;10.32;;;;;;;3.21;71.15;101768.16;681928;28;101724;-90
2020/12/19 00:34:33;;;;;;;18.30;10.50;;;;;;;3.20;71.02;101769.09;684032;28;43748;-91
2020/12/19 00:34:57;;;;;;;18.40;10.18;;;;;;;3.25;71.14;101768.78;682910;28;1356;-90
2020/12/19 00:35:20;;;;;;;18.92;10.05;;;;;;;3.26;70.82;101767.84;679189;29;16958;-88
2020/12/19 00:35:44;;;;;;;20.13;10.35;;;;;;;3.23;70.90;101766.22;678723;29;37903;-91
2020/12/19 00:36:10;;;;;;;20.52;10.20;;;;;;;3.12;71.21;101750.09;672299;28;83070;-91
2020/12/19 00:36:56;;;;;;;19.05;10.10;;;;;;;3.08;71.12;101745.91;679682;29;98857;-91
2020/12/19 00:37:21;;;;;;;17.38;10.10;;;;;;;2.92;71.19;101719.41;669611;29;77368;-91
2020/12/19 00:37:44;;;;;;;17.65;10.00;;;;;;;3.24;71.06;101762.59;680917;29;39995;-90
2020/12/19 00:38:05;;;;;;;19.42;10.80;;;;;;;3.11;71.02;101742.19;679768;29;5465;-90
2020/12/19 00:38:27;;;;;;;18.13;10.45;;;;;;;3.01;70.94;101732.13;679705;29;14294;-89
2020/12/19 00:38:48;;;;;;;16.67;10.25;;;;;;;3.04;71.16;101731.91;679535;29;45340;-91
2020/12/19 00:39:11;;;;;;;18.70;10.20;;;;;;;3.19;70.96;101753.19;681443;28;46220;-90
2020/12/19 00:39:32;;;;;;;18.27;10.38;;;;;;;3.10;70.94;101738.63;683792;28;47128;-90
2020/12/19 00:39:54;;;;;;;18.95;10.25;;;;;;;3.22;70.82;101767.16;684790;28;1362;-92
2020/12/19 00:40:18;;;;;;;17.88;9.93;;;;;;;3.24;70.77;101767.06;681931;29;22183;-90
2020/12/19 00:40:41;;;;;;;17.63;10.07;;;;;;;2.96;70.94;101723.56;676478;29;107115;-90
2020/12/19 00:41:02;;;;;;;17.05;9.65;;;;;;;3.15;71.36;101767.69;678454;29;45131;-90
2020/12/19 00:41:25;;;;;;;19.80;10.60;;;;;;;3.08;71.02;101740.56;682258;29;1385;-90
2020/12/19 00:41:47;;;;;;;19.05;10.07;;;;;;;2.88;70.95;101710.75;681163;29;29805;-91
2020/12/19 00:42:10;;;;;;;18.42;10.15;;;;;;;3.14;70.95;101756.16;682688;28;1464;-89
2020/12/19 00:42:31;;;;;;;18.60;10.32;;;;;;;3.09;70.96;101747.63;680504;29;68442;-91
2020/12/19 00:42:56;;;;;;;18.42;11.18;;;;;;;3.15;71.04;101763.22;677882;29;3848;-90
2020/12/19 00:43:25;;;;;;;18.02;10.68;;;;;;;3.15;71.09;101762.34;679806;29;60375;-92
2020/12/19 00:43:47;;;;;;;19.63;11.10;;;;;;;3.04;71.04;101753.25;678049;28;45019;-91
2020/12/19 00:44:09;;;;;;;19.73;10.40;;;;;;;3.16;71.08;101762.25;680212;28;45473;-90
2020/12/19 00:44:31;;;;;;;21.27;10.52;;;;;;;3.08;71.04;101742.38;682227;29;11997;-90
2020/12/19 00:44:54;;;;;;;20.27;10.73;;;;;;;3.07;70.85;101744.19;677646;29;50432;-90
2020/12/19 00:45:16;;;;;;;17.38;9.85;;;;;;;3.24;70.80;101761.72;679937;29;46044;-91
2020/12/19 00:45:38;;;;;;;17.92;9.35;;;;;;;2.96;70.86;101715.56;682488;29;1265;-90
2020/12/19 00:46:00;;;;;;;18.95;10.57;;;;;;;3.04;70.75;101731.03;680654;29;38943;-89
2020/12/19 00:46:22;;;;;;;18.08;10.38;;;;;;;3.11;70.89;101745.69;674574;28;28414;-90
2020/12/19 00:46:48;;;;;;;16.58;10.48;;;;;;;3.05;70.84;101738.09;678069;29;39597;-90
2020/12/19 00:47:12;;;;;;;16.13;9.60;;;;;;;3.15;70.73;101749.00;677651;29;64473;-90
2020/12/19 00:47:35;;;;;;;17.38;9.98;;;;;;;2.98;71.29;101740.34;678226;29;99539;-89
2020/12/19 00:47:57;;;;;;;19.38;10.48;;;;;;;2.90;70.97;101718.66;676077;29;56831;-90
2020/12/19 00:48:21;;;;;;;19.10;9.77;;;;;;;3.16;70.90;101759.56;680918;29;15966;-90
2020/12/19 00:48:43;;;;;;;19.85;10.43;;;;;;;3.15;70.86;101757.00;687191;28;22232;-89
2020/12/19 00:49:05;;;;;;;17.20;10.02;;;;;;;2.97;70.65;101724.41;686323;28;24288;-91
2020/12/19 00:49:30;;;;;;;18.13;9.73;;;;;;;3.09;70.88;101747.63;681999;28;26087;-91
2020/12/19 00:49:51;;;;;;;18.40;10.45;;;;;;;3.10;70.94;101757.31;676458;29;116291;-89
2020/12/19 00:50:15;;;;;;;18.88;10.70;;;;;;;2.89;70.93;101717.78;681817;29;29991;-89
2020/12/19 00:50:39;;;;;;;16.77;9.63;;;;;;;3.09;71.17;101765.44;678772;29;70315;-88
2020/12/19 00:51:00;;;;;;;19.00;10.18;;;;;;;2.96;71.19;101739.59;681523;28;37694;-90
2020/12/19 00:51:23;;;;;;;19.60;10.38;;;;;;;3.09;70.86;101755.63;679830;29;5569;-90
2020/12/19 00:51:45;;;;;;;17.25;9.95;;;;;;;2.92;71.28;101730.06;682122;28;16299;-91
2020/12/19 00:52:07;;;;;;;17.10;9.77;;;;;;;2.93;71.20;101738.91;679736;28;7514;-92
2020/12/19 00:52:29;;;;;;;20.98;10.27;;;;;;;2.94;71.21;101744.16;682440;29;1457;-88
2020/12/19 00:52:51;;;;;;;20.73;10.77;;;;;;;2.91;71.10;101740.84;682601;28;68222;-88
2020/12/19 00:53:13;;;;;;;20.02;11.10;;;;;;;2.95;71.27;101737.03;681511;29;23341;-90
2020/12/19 00:53:34;;;;;;;18.45;10.63;;;;;;;3.04;71.38;101755.94;677823;28;1347;-90
2020/12/19 00:53:58;;;;;;;19.35;10.10;;;;;;;2.85;71.19;101726.97;684321;28;13605;-90
2020/12/19 00:54:49;;;;;;;19.00;9.63;;;;;;;2.89;71.57;101732.94;685100;28;62372;-88
2020/12/19 00:55:11;;;;;;;18.90;10.05;;;;;;;2.96;71.63;101755.59;686595;28;78896;-90
2020/12/19 00:55:32;;;;;;;18.45;9.98;;;;;;;2.77;71.38;101721.25;684180;28;930;-89
2020/12/19 00:55:56;;;;;;;18.13;10.40;;;;;;;2.84;71.44;101727.06;685782;28;67104;-88
2020/12/19 00:56:19;;;;;;;20.20;10.50;;;;;;;2.85;71.49;101726.09;687187;28;4108;-87
2020/12/19 00:56:43;;;;;;;19.98;10.35;;;;;;;2.91;71.36;101735.50;683443;28;15863;-87
2020/12/19 00:57:04;;;;;;;18.88;10.35;;;;;;;2.98;71.49;101755.47;682931;28;55462;-89
2020/12/19 00:57:28;;;;;;;20.33;10.20;;;;;;;2.69;71.40;101703.09;686207;28;1131;-88
2020/12/19 00:57:50;;;;;;;18.38;9.85;;;;;;;3.02;71.39;101755.16;685281;28;13776;-88
2020/12/19 00:58:12;;;;;;;18.38;10.00;;;;;;;3.01;71.51;101753.47;686517;28;22397;-90
2020/12/19 00:58:33;;;;;;;19.25;10.13;;;;;;;2.79;71.27;101718.50;688034;28;47108;-91
2020/12/19 00:58:55;;;;;;;20.52;10.50;;;;;;;2.88;71.39;101741.88;686447;28;47525;-88
2020/12/19 00:59:17;;;;;;;19.45;10.23;;;;;;;2.78;71.56;101728.31;682940;28;45243;-90
2020/12/19 00:59:39;;;;;;;19.95;10.88;;;;;;;2.96;71.35;101752.06;681769;29;22225;-91
2020/12/19 01:00:03;;;;;;;20.17;10.30;;;;;;;2.89;71.54;101744.47;683457;28;26826;-88
2020/12/19 01:00:27;;;;;;;18.38;10.38;;;;;;;2.95;71.67;101751.22;679603;28;56734;-90
2020/12/19 01:00:48;;;;;;;16.77;10.30;;;;;;;2.78;71.45;101720.31;681243;28;87432;-91
2020/12/19 01:01:10;;;;;;;19.55;10.65;;;;;;;2.86;71.47;101731.31;681939;29;14463;-90
2020/12/19 01:01:32;;;;;;;20.45;11.02;;;;;;;2.76;71.47;101714.22;681029;29;46365;-90
2020/12/19 01:01:53;;;;;;;18.70;10.70;;;;;;;2.82;71.65;101727.16;682237;29;12866;-90
2020/12/19 01:02:15;;;;;;;20.45;10.80;;;;;;;2.83;71.87;101734.19;683038;28;1137;-88
2020/12/19 01:02:37;;;;;;;18.92;9.93;;;;;;;2.65;71.78;101703.41;681326;28;46616;-90
2020/12/19 01:02:59;;;;;;;17.80;10.13;;;;;;;2.93;71.67;101750.47;679151;29;7003;-91
2020/12/19 01:03:21;;;;;;;19.05;10.20;;;;;;;2.94;71.83;101746.81;678732;29;1229;-88
2020/12/19 01:03:43;;;;;;;21.52;10.60;;;;;;;2.83;71.77;101726.19;682793;28;18906;-88
2020/12/19 01:04:05;;;;;;;19.67;10.75;;;;;;;2.81;71.87;101724.59;684024;28;64203;-89
2020/12/19 01:04:26;;;;;;;20.08;10.50;;;;;;;2.87;71.90;101749.06;682751;28;1434;-91
2020/12/19 01:04:48;;;;;;;18.40;9.88;;;;;;;2.92;71.88;101750.56;681500;29;12111;-88
2020/12/19 01:05:14;;;;;;;18.95;10.38;;;;;;;2.94;71.68;101746.81;681449;29;38952;-91
2020/12/19 01:05:35;;;;;;;18.55;10.80;;;;;;;2.62;71.66;101699.13;684244;28;29573;-89
2020/12/19 01:05:57;;;;;;;15.95;9.85;;;;;;;2.81;71.79;101728.13;687837;28;42999;-89
2020/12/19 01:06:22;;;;;;;16.30;10.23;;;;;;;2.74;71.75;101715.28;686000;28;4041;-88
2020/12/19 01:06:44;;;;;;;17.20;10.60;;;;;;;2.72;71.92;101710.03;682551;28;70188;-90
2020/12/19 01:07:09;;;;;;;16.17;10.43;;;;;;;2.82;71.92;101734.28;679980;29;17670;-89
2020/12/19 01:07:32;;;;;;;15.75;9.77;;;;;;;2.94;71.91;101748.66;679153;29;136262;-88
2020/12/19 01:07:53;;;;;;;17.70;9.52;;;;;;;2.84;71.48;101732.41;679947;29;1240;-88
2020/12/19 01:08:15;;;;;;;17.95;9.77;;;;;;;2.87;71.76;101735.72;686036;28;3256;-88
2020/12/19 01:08:37;;;;;;;18.75;10.15;;;;;;;2.75;71.70;101715.19;685128;29;1131;-88
2020/12/19 01:09:54;;;;;;;18.05;10.77;;;;;;;2.93;71.55;101744.25;684067;29;39632;-89
2020/12/19 01:10:16;;;;;;;17.33;10.00;;;;;;;2.89;71.62;101741.78;678892;28;136232;-88
2020/12/19 01:10:41;;;;;;;17.80;10.43;;;;;;;2.96;71.65;101749.38;683952;29;40795;-88
2020/12/19 01:11:05;;;;;;;17.50;10.18;;;;;;;2.86;71.36;101730.47;680416;29;22134;-89
2020/12/19 01:11:29;;;;;;;15.70;9.40;;;;;;;2.66;71.29;101697.13;679562;28;95905;-89
2020/12/19 01:11:51;;;;;;;15.63;9.27;;;;;;;2.69;71.20;101705.75;679802;29;50624;-88
2020/12/19 01:12:12;;;;;;;18.75;9.98;;;;;;;2.88;71.37;101742.75;680692;29;46313;-88
2020/12/19 01:12:34;;;;;;;19.70;10.38;;;;;;;2.93;71.54;101749.59;681451;29;10955;-89
2020/12/19 01:12:55;;;;;;;19.33;10.23;;;;;;;2.72;71.36;101720.72;684534;29;18671;-88
2020/12/19 01:13:17;;;;;;;18.08;9.88;;;;;;;2.86;71.44;101725.13;684834;28;45214;-90
2020/12/19 01:13:39;;;;;;;17.65;9.57;;;;;;;2.83;71.67;101728.84;683166;28;1277;-88
2020/12/19 01:14:00;;;;;;;15.65;9.50;;;;;;;2.74;71.60;101712.63;681486;29;36946;-90
2020/12/19 01:14:22;;;;;;;16.58;10.07;;;;;;;2.94;71.43;101743.31;681175;29;47267;-90
2020/12/19 01:14:44;;;;;;;17.10;10.35;;;;;;;2.96;71.41;101752.06;681913;28;25522;-89
2020/12/19 01:15:08;;;;;;;18.63;10.52;;;;;;;2.84;71.31;101724.41;681886;28;25612;-88
2020/12/19 01:15:30;;;;;;;17.80;9.82;;;;;;;2.79;71.26;101723.81;680139;28;85336;-89
2020/12/19 01:15:52;;;;;;;17.27;10.30;;;;;;;2.75;71.17;101717.00;685312;28;1402;-88
2020/12/19 01:16:15;;;;;;;18.40;10.60;;;;;;;2.92;71.17;101750.56;681724;28;12211;-89
2020/12/19 01:16:38;;;;;;;17.90;10.15;;;;;;;2.81;71.32;101724.59;678328;29;58955;-89
2020/12/19 01:17:03;;;;;;;20.45;10.15;;;;;;;2.79;71.30;101729.16;679472;29;88617;-89
2020/12/19 01:17:25;;;;;;;19.23;10.57;;;;;;;2.89;71.23;101739.13;680464;28;91489;-87
2020/12/19 01:17:46;;;;;;;20.13;10.33;;;;;;;2.77;71.35;101733.75;682258;28;7752;-89
2020/12/19 01:18:09;;;;;;;18.20;10.13;;;;;;;2.83;71.17;101736.84;680563;29;12184;-88
2020/12/19 01:18:30;;;;;;;16.67;9.85;;;;;;;2.85;70.90;101740.31;687519;28;1333;-87
2020/12/19 01:18:53;;;;;;;16.75;10.13;;;;;;;2.68;71.18;101713.88;682879;28;41108;-88
2020/12/19 01:19:15;;;;;;;18.88;10.32;;;;;;;2.84;71.12;101743.91;683390;28;62111;-91
2020/12/19 01:19:37;;;;;;;20.58;10.32;;;;;;;2.84;71.36;101756.41;686447;28;1113;-88
2020/12/19 01:19:59;;;;;;;19.63;10.07;;;;;;;2.84;71.03;101751.91;681119;29;990;-88
2020/12/19 01:20:21;;;;;;;18.48;10.43;;;;;;;2.65;71.29;101708.72;679653;29;69471;-89
2020/12/19 01:20:42;;;;;;;17.42;10.07;;;;;;;2.74;71.40;101736.63;681405;29;17579;-88
2020/12/19 01:21:11;;;;;;;17.23;9.80;;;;;;;2.45;71.47;101692.25;680569;29;14274;-89
2020/12/19 01:21:34;;;;;;;20.85;10.38;;;;;;;2.76;71.46;101735.56;674932;29;139914;-91
2020/12/19 01:21:55;;;;;;;18.63;10.20;;;;;;;2.63;71.36;101724.88;681922;29;1631;-89
2020/12/19 01:22:23;;;;;;;17.42;9.70;;;;;;;2.79;71.46;101750.50;680759;29;48205;-91
2020/12/19 01:22:45;;;;;;;19.23;11.05;;;;;;;2.70;71.39;101734.16;677314;28;163003;-91
2020/12/19 01:23:07;;;;;;;16.60;10.00;;;;;;;2.50;71.47;101694.63;680537;29;48134;-90
2020/12/19 01:23:33;;;;;;;17.55;10.25;;;;;;;2.69;71.49;101728.91;680237;29;1537;-91
2020/12/19 01:24:02;;;;;;;21.55;11.05;;;;;;;2.70;71.66;101734.16;683348;28;61486;-91
2020/12/19 01:24:26;;;;;;;19.05;10.38;;;;;;;2.79;71.53;101747.84;683320;28;15399;-90
2020/12/19 01:24:50;;;;;;;20.25;10.93;;;;;;;2.42;71.62;101687.13;681484;29;1118;-90
2020/12/19 01:25:12;;;;;;;21.05;10.80;;;;;;;2.43;71.50;101687.97;676654;29;93405;-91
2020/12/19 01:25:34;;;;;;;20.98;10.88;;;;;;;2.67;71.62;101725.50;678863;29;33803;-90
2020/12/19 01:25:58;;;;;;;20.75;10.85;;;;;;;2.64;71.54;101725.72;680752;29;43713;-90
2020/12/19 01:26:20;;;;;;;18.35;10.10;;;;;;;2.78;71.70;101754.16;677203;28;85024;-91
2020/12/19 01:26:42;;;;;;;16.52;10.20;;;;;;;2.47;71.41;101703.66;680529;29;36556;-89
2020/12/19 01:27:04;;;;;;;20.52;10.07;;;;;;;2.50;71.46;101708.78;682575;28;46588;-90
2020/12/19 01:27:28;;;;;;;22.70;10.23;;;;;;;2.56;71.70;101714.69;686675;28;39160;-90
2020/12/19 01:27:50;;;;;;;19.67;10.25;;;;;;;2.76;71.67;101748.91;685026;28;1258;-89
2020/12/19 01:28:12;;;;;;;16.88;10.05;;;;;;;2.56;71.55;101731.56;677289;29;44832;-91
2020/12/19 01:28:34;;;;;;;17.40;10.07;;;;;;;2.76;71.40;101751.59;674357;29;44903;-90
2020/12/19 01:28:56;;;;;;;17.60;9.85;;;;;;;2.75;71.57;101754.34;681235;29;32191;-90
2020/12/19 01:29:19;;;;;;;20.38;10.02;;;;;;;2.41;71.67;101704.06;680553;29;42867;-90
2020/12/19 01:29:44;;;;;;;18.33;9.98;;;;;;;2.74;71.80;101748.13;680895;29;39106;-91
2020/12/19 01:30:05;;;;;;;19.48;10.52;;;;;;;2.42;71.64;101696.94;682482;29;1265;-91
2020/12/19 01:30:31;;;;;;;18.65;10.13;;;;;;;2.52;71.53;101717.56;682257;28;10896;-90
2020/12/19 01:31:02;;;;;;;17.33;9.93;;;;;;;2.66;71.62;101739.78;676889;29;82108;-90
2020/12/19 01:31:39;;;;;;;16.58;9.75;;;;;;;2.57;71.55;101721.72;678158;29;59581;-90
2020/12/19 01:32:10;;;;;;;16.98;9.50;;;;;;;2.71;71.59;101756.34;678204;29;62740;-91
2020/12/19 01:32:35;;;;;;;16.38;9.63;;;;;;;2.37;71.63;101697.25;678025;29;60514;-90
2020/12/19 01:32:59;;;;;;;18.65;10.48;;;;;;;2.70;71.71;101750.16;679541;29;15379;-90
2020/12/19 01:33:21;;;;;;;18.70;9.93;;;;;;;2.63;71.47;101737.31;676090;29;45353;-90
2020/12/19 01:33:43;;;;;;;19.48;9.98;;;;;;;2.66;71.85;101745.13;681728;29;28437;-91
2020/12/19 01:34:05;;;;;;;19.80;9.90;;;;;;;2.66;71.57;101748.63;682431;29;1462;-91
2020/12/19 01:34:27;;;;;;;20.17;10.50;;;;;;;2.63;71.71;101740.00;680962;29;32069;-90
2020/12/19 01:34:48;;;;;;;18.75;10.15;;;;;;;2.58;71.58;101739.44;685229;28;45441;-90
2020/12/19 01:35:10;;;;;;;19.58;10.25;;;;;;;2.56;71.76;101733.38;690342;28;10753;-91
2020/12/19 01:35:35;;;;;;;18.55;9.93;;;;;;;2.46;71.56;101727.75;683337;28;46335;-90
2020/12/19 01:35:57;;;;;;;16.55;10.25;;;;;;;2.61;71.85;101749.91;677561;29;115024;-90
2020/12/19 01:36:20;;;;;;;19.53;11.03;;;;;;;2.55;71.87;101742.31;680727;28;4064;-91
2020/12/19 01:36:43;;;;;;;20.23;10.25;;;;;;;2.51;72.02;101739.84;678861;29;71325;-91
2020/12/19 01:37:07;;;;;;;18.35;10.00;;;;;;;2.49;72.04;101736.44;681873;29;1389;-90
2020/12/19 01:37:29;;;;;;;19.10;10.00;;;;;;;2.51;72.41;101731.00;679871;28;78080;-90
2020/12/19 01:37:54;;;;;;;17.67;9.82;;;;;;;2.55;71.94;101732.50;676614;29;22249;-90
2020/12/19 01:38:16;;;;;;;18.50;9.75;;;;;;;2.60;71.99;101756.19;678050;29;107783;-90
2020/12/19 01:38:38;;;;;;;18.33;10.20;;;;;;;2.49;71.97;101724.91;683916;28;46902;-89
2020/12/19 01:39:00;;;;;;;19.10;10.43;;;;;;;2.61;71.92;101753.44;683991;28;34598;-89
2020/12/19 01:39:22;;;;;;;18.67;10.05;;;;;;;2.62;71.92;101749.81;680022;28;6197;-89
2020/12/19 01:39:44;;;;;;;18.33;9.90;;;;;;;2.46;72.03;101720.63;680702;29;26606;-89
2020/12/19 01:40:08;;;;;;;19.65;10.40;;;;;;;2.33;71.76;101691.22;680378;29;20578;-91
2020/12/19 01:40:33;;;;;;;17.92;9.98;;;;;;;2.66;71.97;101755.81;684768;28;72601;-91
2020/12/19 01:40:56;;;;;;;18.55;9.73;;;;;;;2.66;71.94;101745.97;685951;28;970;-91
2020/12/19 01:41:18;;;;;;;18.10;10.30;;;;;;;2.60;71.89;101730.41;680031;29;60057;-90
2020/12/19 01:41:40;;;;;;;17.48;10.15;;;;;;;2.68;71.90;101749.41;681415;28;1372;-91
2020/12/19 01:42:02;;;;;;;19.50;10.35;;;;;;;2.32;71.75;101686.00;684028;28;1232;-90
2020/12/19 01:42:23;;;;;;;19.67;10.18;;;;;;;2.69;71.80;101745.78;688605;28;1491;-90
2020/12/19 01:42:45;;;;;;;17.90;10.23;;;;;;;2.47;71.94;101706.31;683548;28;46863;-90
2020/12/19 01:43:06;;;;;;;16.02;10.20;;;;;;;2.68;71.91;101748.53;683036;28;4224;-91
2020/12/19 01:43:43;;;;;;;18.38;10.35;;;;;;;2.58;71.85;101724.28;683443;28;45346;-90
2020/12/19 01:44:04;;;;;;;18.50;10.23;;;;;;;2.58;71.86;101724.28;682016;28;78523;-90
2020/12/19 01:44:26;;;;;;;18.05;9.98;;;;;;;2.48;72.08;101708.03;680516;29;16562;-90
2020/12/19 01:44:49;;;;;;;18.42;10.32;;;;;;;2.68;71.68;101740.53;682927;28;42891;-90
2020/12/19 01:45:10;;;;;;;19.35;10.73;;;;;;;2.58;71.71;101724.28;681047;28;9781;-90
2020/12/19 01:45:32;;;;;;;17.55;9.75;;;;;;;2.69;71.70;101739.59;679634;28;24762;-89
2020/12/19 01:45:53;;;;;;;16.23;9.55;;;;;;;2.68;71.83;101745.88;680585;29;47324;-90
2020/12/19 01:46:27;;;;;;;19.27;10.63;;;;;;;2.46;71.93;101709.97;684994;28;1046;-90
2020/12/19 01:47:00;;;;;;;18.73;10.25;;;;;;;2.31;71.82;101685.16;680262;28;123039;-91
2020/12/19 01:47:22;;;;;;;16.98;9.63;;;;;;;2.37;71.93;101691.91;679645;28;137541;-92
2020/12/19 01:47:44;;;;;;;17.65;9.65;;;;;;;2.59;71.71;101735.84;680758;29;28408;-90
2020/12/19 01:48:23;;;;;;;19.50;9.90;;;;;;;2.63;72.02;101737.31;679236;29;15710;-90
2020/12/19 01:48:45;;;;;;;16.65;9.63;;;;;;;2.65;71.93;101738.94;680916;28;115394;-90
2020/12/19 01:49:06;;;;;;;18.52;10.57;;;;;;;2.65;71.90;101732.75;688367;28;40646;-91
2020/12/19 01:49:31;;;;;;;20.08;10.85;;;;;;;2.50;71.70;101700.78;686286;28;1320;-90
2020/12/19 01:49:52;;;;;;;19.85;10.65;;;;;;;2.72;71.73;101734.06;682683;28;106593;-89
2020/12/19 01:50:14;;;;;;;18.75;9.98;;;;;;;2.72;71.87;101739.41;682470;28;22648;-91
2020/12/19 01:50:35;;;;;;;18.88;10.10;;;;;;;2.72;71.69;101736.72;680753;29;44552;-90
2020/12/19 01:50:59;;;;;;;18.17;10.02;;;;;;;2.53;71.75;101697.94;677100;29;20781;-90
2020/12/19 01:51:21;;;;;;;18.95;10.23;;;;;;;2.60;71.69;101710.84;676559;29;78421;-91
2020/12/19 01:51:47;;;;;;;17.75;10.00;;;;;;;2.74;71.53;101724.13;677939;29;40113;-90
2020/12/19 01:52:09;;;;;;;16.30;9.77;;;;;;;2.55;71.59;101702.31;679958;29;996;-91
2020/12/19 01:52:36;;;;;;;19.02;10.45;;;;;;;2.36;71.54;101660.00;680087;29;61607;-90
2020/12/19 01:52:58;;;;;;;20.58;11.02;;;;;;;2.71;71.64;101732.34;678478;28;57568;-90
2020/12/19 01:53:20;;;;;;;18.52;10.38;;;;;;;2.60;71.76;101710.84;681987;29;1241;-90
2020/12/19 01:53:42;;;;;;;18.08;10.35;;;;;;;2.44;71.64;101679.00;679955;29;1497;-90
2020/12/19 01:54:10;;;;;;;17.55;9.93;;;;;;;2.45;71.39;101684.25;680145;29;1252;-90